createdAt,value
2022-11-21T00:01:01.067Z,5.90
2022-11-21T00:03:27.929Z,6.00
2022-11-21T00:05:54.826Z,6.00
2022-11-21T00:08:22.317Z,6.00
2022-11-21T00:10:49.249Z,6.10
2022-11-21T00:13:20.627Z,6.00
2022-11-21T00:15:48.052Z,6.10
2022-11-21T00:18:15.291Z,6.10
2022-11-21T00:20:44.069Z,6.10
2022-11-21T00:23:11.461Z,6.00
2022-11-21T00:25:38.962Z,5.90
2022-11-21T00:28:06.221Z,5.80
2022-11-21T00:30:33.410Z,5.80
2022-11-21T00:33:00.269Z,5.90
2022-11-21T00:35:27.255Z,6.00
2022-11-21T00:37:54.219Z,6.00
2022-11-21T00:40:21.131Z,6.00
2022-11-21T00:42:47.992Z,6.10
2022-11-21T00:45:18.351Z,6.20
2022-11-21T00:47:48.110Z,6.20
2022-11-21T00:50:15.877Z,6.20
2022-11-21T00:52:42.668Z,6.20
2022-11-21T00:55:09.973Z,6.20
2022-11-21T00:57:36.893Z,6.20
2022-11-21T01:00:04.425Z,6.10
2022-11-21T01:02:32.279Z,6.10
2022-11-21T01:04:59.072Z,6.10
2022-11-21T01:07:26.008Z,6.10
2022-11-21T01:09:52.849Z,6.10
2022-11-21T01:12:19.696Z,6.10
2022-11-21T01:14:46.674Z,6.10
2022-11-21T01:17:13.530Z,6.10
2022-11-21T01:19:40.425Z,6.00
2022-11-21T01:22:07.276Z,6.00
2022-11-21T01:24:34.108Z,6.00
2022-11-21T01:27:00.985Z,6.00
2022-11-21T01:29:28.125Z,6.00
2022-11-21T01:31:54.978Z,6.10
2022-11-21T01:34:21.881Z,6.20
2022-11-21T01:36:48.699Z,6.10
2022-11-21T01:39:15.680Z,5.90
2022-11-21T01:41:43.449Z,6.10
2022-11-21T01:44:16.550Z,6.10
2022-11-21T01:46:43.389Z,6.10
2022-11-21T01:49:16.321Z,6.00
2022-11-21T01:51:51.250Z,6.00
2022-11-21T01:54:29.399Z,6.00
2022-11-21T01:56:56.530Z,6.10
2022-11-21T01:59:27.736Z,6.20
2022-11-21T02:01:55.511Z,6.20
2022-11-21T02:04:23.740Z,6.20
2022-11-21T02:06:50.973Z,6.20
2022-11-21T02:09:18.324Z,6.30
2022-11-21T02:11:47.988Z,6.30
2022-11-21T02:14:15.331Z,6.30
2022-11-21T02:16:43.066Z,6.30
2022-11-21T02:19:15.373Z,6.20
2022-11-21T02:21:45.350Z,6.20
2022-11-21T02:24:27.717Z,6.20
2022-11-21T02:26:55.186Z,6.20
2022-11-21T02:29:22.125Z,6.10
2022-11-21T02:31:49.033Z,6.10
2022-11-21T02:34:15.896Z,5.90
2022-11-21T02:36:44.301Z,5.80
2022-11-21T02:39:14.111Z,5.70
2022-11-21T02:41:43.641Z,5.60
2022-11-21T02:44:19.799Z,5.60
2022-11-21T02:46:50.640Z,5.60
2022-11-21T02:49:40.823Z,5.60
2022-11-21T02:52:07.773Z,5.50
2022-11-21T02:54:34.633Z,5.60
2022-11-21T02:57:01.522Z,5.60
2022-11-21T02:59:28.393Z,5.60
2022-11-21T03:01:57.575Z,5.60
2022-11-21T03:04:24.466Z,5.60
2022-11-21T03:06:51.304Z,5.60
2022-11-21T03:09:18.203Z,5.60
2022-11-21T03:11:45.050Z,5.70
2022-11-21T03:14:11.864Z,5.70
2022-11-21T03:16:38.690Z,5.70
2022-11-21T03:19:05.594Z,5.70
2022-11-21T03:21:32.425Z,5.70
2022-11-21T03:23:59.286Z,5.80
2022-11-21T03:26:26.127Z,5.80
2022-11-21T03:28:53.005Z,5.80
2022-11-21T03:31:19.847Z,5.80
2022-11-21T03:33:46.678Z,5.80
2022-11-21T03:36:13.841Z,5.80
2022-11-21T03:38:40.805Z,5.80
2022-11-21T03:41:27.627Z,5.80
2022-11-21T03:43:54.521Z,5.80
2022-11-21T03:46:21.434Z,5.80
2022-11-21T03:48:48.289Z,5.80
2022-11-21T03:51:15.184Z,5.80
2022-11-21T03:53:42.069Z,5.80
2022-11-21T03:56:08.844Z,5.80
2022-11-21T03:58:35.644Z,5.90
2022-11-21T04:01:02.534Z,5.80
2022-11-21T04:03:29.361Z,5.90
2022-11-21T04:05:56.127Z,5.90
2022-11-21T04:08:22.879Z,5.90
2022-11-21T04:10:50.165Z,5.90
2022-11-21T04:13:17.406Z,5.80
2022-11-21T04:15:45.344Z,5.80
2022-11-21T04:18:12.500Z,5.80
2022-11-21T04:20:39.805Z,5.80
2022-11-21T04:23:07.006Z,5.80
2022-11-21T04:25:33.846Z,5.90
2022-11-21T04:28:01.138Z,5.90
2022-11-21T04:30:28.370Z,5.90
2022-11-21T04:32:55.877Z,5.90
2022-11-21T04:35:23.530Z,5.90
2022-11-21T04:37:50.857Z,6.00
2022-11-21T04:40:17.765Z,5.90
2022-11-21T04:42:45.130Z,5.90
2022-11-21T04:45:12.524Z,5.90
2022-11-21T04:47:43.278Z,6.00
2022-11-21T04:50:10.996Z,6.00
2022-11-21T04:52:37.893Z,6.00
2022-11-21T04:55:05.008Z,6.00
2022-11-21T04:57:32.348Z,6.00
2022-11-21T04:59:59.191Z,6.00
2022-11-21T05:02:26.200Z,6.10
2022-11-21T05:04:53.208Z,6.10
2022-11-21T05:07:20.126Z,6.10
2022-11-21T05:09:46.965Z,6.10
2022-11-21T05:12:32.332Z,6.00
2022-11-21T05:14:59.175Z,6.00
2022-11-21T05:17:27.764Z,6.10
2022-11-21T05:19:54.902Z,6.00
2022-11-21T05:22:21.840Z,6.10
2022-11-21T05:24:48.670Z,6.00
2022-11-21T05:27:15.527Z,6.00
2022-11-21T05:29:42.341Z,6.00
2022-11-21T05:32:09.182Z,6.00
2022-11-21T05:34:36.077Z,6.00
2022-11-21T05:37:02.939Z,6.10
2022-11-21T05:39:29.763Z,6.00
2022-11-21T05:42:01.452Z,6.10
2022-11-21T05:44:30.155Z,6.10
2022-11-21T05:46:57.590Z,6.10
2022-11-21T05:49:24.360Z,6.10
2022-11-21T05:51:51.219Z,6.00
2022-11-21T05:54:18.088Z,6.00
2022-11-21T05:56:44.898Z,6.10
2022-11-21T05:59:12.222Z,6.10
2022-11-21T06:01:57.506Z,6.10
2022-11-21T06:04:24.373Z,6.10
2022-11-21T06:06:51.272Z,6.10
2022-11-21T06:09:18.085Z,6.10
2022-11-21T06:11:44.897Z,6.20
2022-11-21T06:14:11.772Z,6.10
2022-11-21T06:16:38.633Z,6.20
2022-11-21T06:19:05.558Z,6.20
2022-11-21T06:21:34.925Z,6.20
2022-11-21T06:24:01.768Z,6.20
2022-11-21T06:26:28.715Z,6.20
2022-11-21T06:28:55.605Z,6.10
2022-11-21T06:31:23.637Z,6.00
2022-11-21T06:33:54.096Z,6.10
2022-11-21T06:36:21.253Z,6.20
2022-11-21T06:38:48.185Z,6.20
2022-11-21T06:41:19.075Z,6.20
2022-11-21T06:43:46.305Z,6.10
2022-11-21T06:46:13.950Z,6.10
2022-11-21T06:48:42.538Z,6.20
2022-11-21T06:51:12.646Z,6.20
2022-11-21T06:53:39.543Z,6.20
2022-11-21T06:56:06.337Z,6.20
2022-11-21T06:58:33.185Z,6.30
2022-11-21T07:01:03.981Z,6.20
2022-11-21T07:03:30.845Z,6.30
2022-11-21T07:06:01.610Z,6.20
2022-11-21T07:08:29.174Z,6.20
2022-11-21T07:11:23.015Z,6.20
2022-11-21T07:13:43.262Z,6.30
2022-11-21T07:16:11.073Z,6.30
2022-11-21T07:18:37.897Z,6.30
2022-11-21T07:21:05.568Z,6.30
2022-11-21T07:23:33.269Z,6.30
2022-11-21T07:26:01.700Z,6.30
2022-11-21T07:28:29.539Z,6.40
2022-11-21T07:30:57.134Z,6.30
2022-11-21T07:33:23.936Z,6.40
2022-11-21T07:35:50.757Z,6.40
2022-11-21T07:38:17.613Z,6.40
2022-11-21T07:40:44.524Z,6.40
2022-11-21T07:43:11.374Z,6.40
2022-11-21T07:45:38.238Z,6.30
2022-11-21T07:48:05.874Z,6.40
2022-11-21T07:50:33.187Z,6.50
2022-11-21T07:53:01.082Z,6.70
2022-11-21T07:55:29.805Z,7.00
2022-11-21T07:58:02.827Z,7.20
2022-11-21T08:00:30.293Z,7.40
2022-11-21T08:02:57.145Z,7.30
2022-11-21T08:05:24.334Z,7.30
2022-11-21T08:07:51.244Z,7.30
2022-11-21T08:10:18.479Z,7.30
2022-11-21T08:12:45.430Z,7.20
2022-11-21T08:15:12.473Z,7.10
2022-11-21T08:17:39.410Z,7.10
2022-11-21T08:20:07.083Z,7.00
2022-11-21T08:22:38.006Z,7.10
2022-11-21T08:25:05.014Z,7.20
2022-11-21T08:27:31.999Z,7.10
2022-11-21T08:29:58.853Z,7.10
2022-11-21T08:32:25.721Z,7.10
2022-11-21T08:34:52.581Z,7.00
2022-11-21T08:37:19.425Z,7.10
2022-11-21T08:39:46.325Z,7.10
2022-11-21T08:42:13.305Z,7.10
2022-11-21T08:44:40.170Z,7.10
2022-11-21T08:47:07.019Z,7.10
2022-11-21T08:49:35.299Z,7.30
2022-11-21T08:52:02.222Z,7.30
2022-11-21T08:54:29.332Z,7.40
2022-11-21T08:56:56.367Z,7.40
2022-11-21T08:59:23.190Z,7.50
2022-11-21T09:01:50.085Z,7.50
2022-11-21T09:04:16.998Z,7.40
2022-11-21T09:06:43.903Z,7.50
2022-11-21T09:09:10.790Z,7.50
2022-11-21T09:11:37.856Z,7.60
2022-11-21T09:14:23.450Z,7.60
2022-11-21T09:17:08.896Z,7.70
2022-11-21T09:19:35.915Z,7.70
2022-11-21T09:22:02.755Z,7.70
2022-11-21T09:24:29.556Z,7.90
2022-11-21T09:26:56.409Z,8.00
2022-11-21T09:29:23.468Z,8.10
2022-11-21T09:31:50.393Z,8.20
2022-11-21T09:34:17.211Z,8.20
2022-11-21T09:36:44.034Z,8.20
2022-11-21T09:39:10.867Z,8.70
2022-11-21T09:41:53.963Z,9.30
2022-11-21T09:44:27.295Z,10.80
2022-11-21T09:47:00.762Z,11.80
2022-11-21T09:49:27.908Z,13.10
2022-11-21T09:51:56.128Z,14.70
2022-11-21T09:54:31.688Z,13.90
2022-11-21T09:56:59.748Z,12.90
2022-11-21T09:59:34.686Z,13.80
2022-11-21T10:02:02.555Z,15.60
2022-11-21T10:04:29.923Z,16.40
2022-11-21T10:07:03.034Z,16.10
2022-11-21T10:09:32.792Z,16.10
2022-11-21T10:12:37.145Z,15.30
2022-11-21T10:15:05.007Z,13.20
2022-11-21T10:17:40.326Z,12.40
2022-11-21T10:20:25.627Z,11.40
2022-11-21T10:22:55.329Z,11.50
2022-11-21T10:25:27.423Z,12.20
2022-11-21T10:28:00.476Z,13.10
2022-11-21T10:30:27.345Z,12.30
2022-11-21T10:32:56.586Z,11.60
2022-11-21T10:35:30.593Z,11.60
2022-11-21T10:38:01.240Z,11.10
2022-11-21T10:40:31.150Z,10.40
2022-11-21T10:43:26.489Z,9.90
2022-11-21T10:45:53.795Z,9.80
2022-11-21T10:48:20.584Z,9.60
2022-11-21T10:50:57.101Z,9.30
2022-11-21T10:53:47.074Z,9.30
2022-11-21T10:56:14.167Z,9.50
2022-11-21T10:58:45.061Z,9.60
2022-11-21T11:01:26.384Z,9.30
2022-11-21T11:04:28.705Z,9.50
2022-11-21T11:06:57.198Z,10.30
2022-11-21T11:09:25.340Z,12.40
2022-11-21T11:11:52.276Z,13.60
2022-11-21T11:14:28.281Z,13.50
2022-11-21T11:16:55.437Z,13.30
2022-11-21T11:19:34.004Z,15.50
2022-11-21T11:22:05.495Z,16.80
2022-11-21T11:24:32.441Z,16.90
2022-11-21T11:27:00.494Z,16.00
2022-11-21T11:29:28.556Z,16.20
2022-11-21T11:31:57.163Z,16.80
2022-11-21T11:34:37.252Z,17.10
2022-11-21T11:37:19.667Z,16.10
2022-11-21T11:39:49.543Z,14.70
2022-11-21T11:42:34.840Z,14.20
2022-11-21T11:45:33.543Z,14.40
2022-11-21T11:48:01.690Z,14.40
2022-11-21T11:50:34.711Z,15.00
2022-11-21T11:53:01.501Z,15.60
2022-11-21T11:55:43.420Z,14.00
2022-11-21T11:58:28.921Z,12.60
2022-11-21T12:00:59.593Z,12.10
2022-11-21T12:03:41.937Z,13.00
2022-11-21T12:06:12.569Z,12.20
2022-11-21T12:08:55.422Z,12.60
2022-11-21T12:11:47.723Z,13.50
2022-11-21T12:14:38.075Z,13.40
2022-11-21T12:17:05.821Z,13.00
2022-11-21T12:19:33.803Z,12.80
2022-11-21T12:22:01.935Z,12.40
2022-11-21T12:24:28.821Z,12.30
2022-11-21T12:27:04.530Z,11.80
2022-11-21T12:29:31.662Z,11.50
2022-11-21T12:32:17.366Z,11.20
2022-11-21T12:34:47.158Z,10.90
2022-11-21T12:37:36.710Z,11.40
2022-11-21T12:40:21.589Z,12.20
2022-11-21T12:43:07.250Z,13.10
2022-11-21T12:45:37.862Z,13.40
2022-11-21T12:48:41.478Z,13.30
2022-11-21T12:51:46.003Z,12.70
2022-11-21T12:54:31.023Z,12.30
2022-11-21T12:57:17.773Z,12.20
2022-11-21T12:59:56.694Z,12.20
2022-11-21T13:02:32.493Z,12.00
2022-11-21T13:05:00.449Z,11.70
2022-11-21T13:07:29.743Z,11.80
2022-11-21T13:09:57.735Z,11.80
2022-11-21T13:12:24.569Z,11.60
2022-11-21T13:15:03.676Z,11.10
2022-11-21T13:17:39.646Z,11.10
2022-11-21T13:20:24.377Z,11.10
2022-11-21T13:22:55.258Z,11.30
2022-11-21T13:25:47.889Z,11.00
2022-11-21T13:28:17.940Z,10.70
2022-11-21T13:30:54.590Z,10.50
2022-11-21T13:33:37.270Z,10.30
2022-11-21T13:36:10.849Z,10.30
2022-11-21T13:39:09.650Z,10.30
2022-11-21T13:41:55.130Z,10.50
2022-11-21T13:44:31.699Z,10.70
2022-11-21T13:47:03.121Z,10.90
2022-11-21T13:49:34.685Z,11.10
2022-11-21T13:52:06.222Z,11.30
2022-11-21T13:54:55.066Z,11.00
2022-11-21T13:57:24.597Z,11.10
2022-11-21T13:59:54.585Z,11.20
2022-11-21T14:02:21.387Z,11.40
2022-11-21T14:04:56.978Z,11.10
2022-11-21T14:07:25.440Z,10.70
2022-11-21T14:09:53.151Z,10.60
2022-11-21T14:12:29.999Z,10.70
2022-11-21T14:14:59.810Z,10.60
2022-11-21T14:17:30.093Z,10.30
2022-11-21T14:19:58.377Z,10.30
2022-11-21T14:22:31.840Z,10.00
2022-11-21T14:25:01.738Z,9.80
2022-11-21T14:27:30.331Z,9.60
2022-11-21T14:29:57.547Z,9.50
2022-11-21T14:32:30.569Z,9.30
2022-11-21T14:35:23.557Z,9.10
2022-11-21T14:37:50.967Z,8.90
2022-11-21T14:40:22.038Z,8.70
2022-11-21T14:42:48.936Z,8.70
2022-11-21T14:45:19.979Z,8.50
2022-11-21T14:47:48.479Z,8.30
2022-11-21T14:50:22.466Z,8.10
2022-11-21T14:52:57.002Z,8.10
2022-11-21T14:55:30.747Z,8.00
2022-11-21T14:57:59.353Z,8.00
2022-11-21T15:00:57.931Z,7.90
2022-11-21T15:03:21.898Z,7.70
2022-11-21T15:06:06.905Z,7.50
2022-11-21T15:11:42.472Z,7.40
2022-11-21T15:14:19.281Z,7.40
2022-11-21T15:16:47.804Z,7.30
2022-11-21T15:19:21.777Z,7.10
2022-11-21T15:21:49.008Z,7.00
2022-11-21T15:24:29.232Z,6.90
2022-11-21T15:26:56.439Z,6.90
2022-11-21T15:29:23.412Z,6.80
2022-11-21T15:32:06.566Z,6.80
2022-11-21T15:34:36.182Z,6.90
2022-11-21T15:37:04.979Z,6.90
2022-11-21T15:39:32.878Z,6.90
2022-11-21T15:42:18.136Z,6.80
2022-11-21T15:45:01.371Z,6.70
2022-11-21T15:47:28.678Z,6.50
2022-11-21T15:49:55.509Z,6.50
2022-11-21T15:52:22.462Z,6.30
2022-11-21T15:54:49.293Z,6.10
2022-11-21T15:57:17.446Z,6.10
2022-11-21T15:59:44.981Z,6.20
2022-11-21T16:02:15.025Z,6.10
2022-11-21T16:04:42.348Z,6.10
2022-11-21T16:07:09.281Z,6.00
2022-11-21T16:09:37.390Z,6.10
2022-11-21T16:12:04.298Z,6.10
2022-11-21T16:14:31.235Z,6.00
2022-11-21T16:16:58.029Z,6.10
2022-11-21T16:19:25.929Z,6.00
2022-11-21T16:21:53.749Z,5.90
2022-11-21T16:24:20.864Z,5.80
2022-11-21T16:26:49.298Z,5.70
2022-11-21T16:29:16.104Z,5.60
2022-11-21T16:31:42.984Z,5.60
2022-11-21T16:34:09.950Z,5.60
2022-11-21T16:36:36.791Z,5.60
2022-11-21T16:39:10.139Z,5.60
2022-11-21T16:41:40.989Z,5.50
2022-11-21T16:44:12.051Z,5.50
2022-11-21T16:46:41.335Z,5.20
2022-11-21T16:49:09.041Z,5.40
2022-11-21T16:51:35.926Z,5.50
2022-11-21T16:54:08.364Z,5.40
2022-11-21T16:56:35.852Z,5.30
2022-11-21T16:59:02.725Z,5.30
2022-11-21T17:01:29.642Z,5.30
2022-11-21T17:03:56.567Z,5.20
2022-11-21T17:06:25.078Z,5.20
2022-11-21T17:08:51.902Z,5.10
2022-11-21T17:11:29.531Z,5.00
2022-11-21T17:14:01.069Z,5.10
2022-11-21T17:16:28.406Z,5.00
2022-11-21T17:18:56.005Z,5.00
2022-11-21T17:21:23.234Z,4.70
2022-11-21T17:23:50.668Z,4.70
2022-11-21T17:26:19.462Z,4.70
2022-11-21T17:28:59.489Z,4.60
2022-11-21T17:31:26.964Z,4.60
2022-11-21T17:33:55.972Z,4.60
2022-11-21T17:36:23.789Z,4.60
2022-11-21T17:38:51.742Z,4.60
2022-11-21T17:41:19.730Z,4.60
2022-11-21T17:43:47.304Z,4.50
2022-11-21T17:46:18.165Z,4.50
2022-11-21T17:48:49.773Z,4.50
2022-11-21T17:51:21.672Z,4.60
2022-11-21T17:53:49.335Z,4.50
2022-11-21T17:56:17.569Z,4.50
2022-11-21T17:58:44.534Z,4.50
2022-11-21T18:01:19.221Z,4.50
2022-11-21T18:03:47.434Z,4.50
2022-11-21T18:06:15.458Z,4.40
2022-11-21T18:08:43.343Z,4.50
2022-11-21T18:11:10.970Z,4.50
2022-11-21T18:13:38.621Z,4.50
2022-11-21T18:16:06.887Z,4.50
2022-11-21T18:18:34.156Z,4.60
2022-11-21T18:21:05.396Z,4.60
2022-11-21T18:23:32.361Z,4.70
2022-11-21T18:26:03.722Z,4.70
2022-11-21T18:28:30.697Z,4.70
2022-11-21T18:31:16.932Z,4.60
2022-11-21T18:33:43.917Z,4.60
2022-11-21T18:36:11.638Z,4.70
2022-11-21T18:38:48.914Z,4.80
2022-11-21T18:41:19.337Z,4.80
2022-11-21T18:43:50.138Z,4.80
2022-11-21T18:46:17.269Z,4.80
2022-11-21T18:49:02.386Z,4.90
2022-11-21T18:51:31.872Z,4.90
2022-11-21T18:54:03.330Z,4.80
2022-11-21T18:56:30.482Z,4.80
2022-11-21T18:58:58.998Z,4.90
2022-11-21T19:01:27.398Z,5.00
2022-11-21T19:03:54.885Z,4.90
2022-11-21T19:06:22.331Z,4.90
2022-11-21T19:08:56.084Z,4.90
2022-11-21T19:11:24.646Z,4.80
2022-11-21T19:13:51.971Z,4.90
2022-11-21T19:16:20.035Z,4.90
2022-11-21T19:19:05.427Z,4.90
2022-11-21T19:21:37.434Z,4.90
2022-11-21T19:24:06.021Z,4.80
2022-11-21T19:26:32.916Z,4.80
2022-11-21T19:28:59.824Z,4.90
2022-11-21T19:31:26.668Z,4.90
2022-11-21T19:33:53.545Z,5.00
2022-11-21T19:36:21.317Z,5.00
2022-11-21T19:38:50.944Z,5.00
2022-11-21T19:41:19.970Z,5.10
2022-11-21T19:43:47.819Z,5.00
2022-11-21T19:46:15.826Z,5.20
2022-11-21T19:48:43.010Z,5.10
2022-11-21T19:51:10.034Z,5.00
2022-11-21T19:53:37.873Z,4.90
2022-11-21T19:56:13.825Z,5.00
2022-11-21T19:58:40.897Z,5.10
2022-11-21T20:01:08.766Z,5.00
2022-11-21T20:03:36.051Z,5.10
2022-11-21T20:06:07.460Z,5.20
2022-11-21T20:08:34.773Z,5.20
2022-11-21T20:11:10.970Z,5.20
2022-11-21T20:13:38.941Z,5.10
2022-11-21T20:16:05.977Z,5.20
2022-11-21T20:18:32.786Z,5.30
2022-11-21T20:21:06.603Z,5.20
2022-11-21T20:23:33.438Z,5.40
2022-11-21T20:26:00.358Z,5.30
2022-11-21T20:28:27.216Z,5.50
2022-11-21T20:30:54.065Z,5.30
2022-11-21T20:33:21.247Z,5.20
2022-11-21T20:35:48.087Z,5.20
2022-11-21T20:38:16.970Z,5.20
2022-11-21T20:40:51.851Z,5.20
2022-11-21T20:43:18.740Z,5.20
2022-11-21T20:46:08.334Z,5.30
2022-11-21T20:48:34.018Z,5.40
2022-11-21T20:53:53.130Z,5.60
2022-11-21T20:56:22.343Z,5.70
2022-11-21T20:58:49.149Z,5.60
2022-11-21T21:01:17.398Z,5.50
2022-11-21T21:03:44.248Z,5.50
2022-11-21T21:06:11.809Z,5.40
2022-11-21T21:08:39.046Z,5.40
2022-11-21T21:11:50.456Z,5.40
2022-11-21T21:14:13.098Z,5.40
2022-11-21T21:16:39.946Z,5.50
2022-11-21T21:19:06.828Z,5.50
2022-11-21T21:21:33.744Z,5.40
2022-11-21T21:24:01.793Z,5.40
2022-11-21T21:26:38.590Z,5.30
2022-11-21T21:29:09.782Z,5.40
2022-11-21T21:31:36.566Z,5.50
2022-11-21T21:34:03.431Z,5.50
2022-11-21T21:36:30.549Z,5.50
2022-11-21T21:38:58.465Z,5.50
2022-11-21T21:41:26.349Z,5.50
2022-11-21T21:43:53.701Z,5.50
2022-11-21T21:46:21.830Z,5.50
2022-11-21T21:48:48.790Z,5.50
2022-11-21T21:51:16.829Z,5.70
2022-11-21T21:53:44.485Z,5.60
2022-11-21T21:56:11.811Z,5.50
2022-11-21T21:58:39.859Z,5.50
2022-11-21T22:01:07.903Z,5.50
2022-11-21T22:03:34.810Z,5.50
2022-11-21T22:06:02.546Z,5.70
2022-11-21T22:08:30.520Z,5.60
2022-11-21T22:11:01.087Z,5.60
2022-11-21T22:13:27.964Z,5.50
2022-11-21T22:15:55.519Z,5.60
2022-11-21T22:18:22.403Z,5.50
2022-11-21T22:20:49.224Z,5.50
2022-11-21T22:23:16.067Z,5.40
2022-11-21T22:25:43.025Z,5.50
2022-11-21T22:28:10.012Z,5.70
2022-11-21T22:30:37.115Z,5.70
2022-11-21T22:33:04.038Z,5.60
2022-11-21T22:35:34.149Z,5.70
2022-11-21T22:38:01.179Z,5.70
2022-11-21T22:40:28.003Z,5.80
2022-11-21T22:42:54.826Z,5.70
2022-11-21T22:45:21.649Z,5.60
2022-11-21T22:47:48.506Z,5.80
2022-11-21T22:50:15.887Z,5.70
2022-11-21T22:52:42.805Z,5.80
2022-11-21T22:55:09.734Z,5.70
2022-11-21T22:57:36.555Z,5.60
2022-11-21T23:00:04.751Z,5.50
2022-11-21T23:02:32.813Z,5.40
2022-11-21T23:04:59.649Z,5.40
2022-11-21T23:07:28.601Z,5.60
2022-11-21T23:09:55.848Z,5.60
2022-11-21T23:12:22.900Z,5.50
2022-11-21T23:14:49.770Z,5.50
2022-11-21T23:17:16.818Z,5.40
2022-11-21T23:19:43.870Z,5.50
2022-11-21T23:22:10.712Z,5.50
2022-11-21T23:24:37.543Z,5.50
2022-11-21T23:27:04.857Z,5.50
2022-11-21T23:29:32.029Z,5.70
2022-11-21T23:31:59.072Z,5.50
2022-11-21T23:34:25.887Z,5.50
2022-11-21T23:36:52.749Z,5.50
2022-11-21T23:39:19.650Z,5.40
2022-11-21T23:41:46.526Z,5.50
2022-11-21T23:44:13.409Z,5.50
2022-11-21T23:46:40.282Z,5.60
2022-11-21T23:49:07.153Z,5.50
2022-11-21T23:51:34.048Z,5.50
2022-11-21T23:54:00.834Z,5.40
2022-11-21T23:56:27.668Z,5.40
2022-11-21T23:58:54.535Z,5.40
